Kingsport, TN

2:39 PM EST on January 27, 2015 (GMT -0500)
Rotherwood | Change Station
CLOSE
Current Station
Personal Weather Station
Location: Kingsport, TN
Elevation: 1171 ft
Nearby Weather Stations

Elev 1171 ft 36.54 °N, 82.61 °W | Updated 7 seconds ago

Overcast
Overcast
36.5 °F
Feels Like 33 °F
N
4.1
Wind Variable Wind from NW
Gusts 6.9 mph

Today
High -- | Low -- °F
--% Chance of Precip.
Yesterday
High -- | Low -- °F
Precip. -- in
7:35 AM 5:50 PM
First Quarter, 57% visible
Pressure 29.94 in
Visibility 10.0 miles
Clouds Overcast 3100 ft
Windchill 33 °F
Dew Point 27 °F
Humidity 67%
Rainfall 0.00 in
Snow Depth Not available.
UV 1 out of 12
Pollen .30 out of 12
Air Quality Not available.
Flu Activity Not available.
METAR KTRI 271853Z 29008KT 10SM OVC031 01/M06 A2993 RMK AO2 SLP136 T00111056

More Conditions Fewer Conditions

Pressure 29.94 in
Visibility 10.0 miles
Clouds Overcast 3100 ft
Windchill 33 °F
Dew Point 27 °F
Humidity 67%
Rainfall 0.00 in
Snow Depth Not available.
UV 1 out of 12
Pollen .30 out of 12
Air Quality Not available.
Flu Activity Not available.
METAR KTRI 271853Z 29008KT 10SM OVC031 01/M06 A2993 RMK AO2 SLP136 T00111056

More Conditions Fewer Conditions

10-Day Weather Forecast

Almanac

Astronomy

Jan. 27, 2015 Rise Set
Actual Time
Civil Twilight
Nautical Twilight
Astronomical Twilight
Moon
Length of Visible Light
Length of Day
Tomorrow will be .
, % of the Moon is Illuminated

Today's Extremes

State Highs State Lows

Community

WunderPhotos

Upload Photos

1,790,829 photos uploaded!

WunderBlogs® & News

Nearby

Air Quality

  Air Quality AQ Index Pollutant
Not available.

Snow Depth

Station Depth Elevation

Earthquake Activity

City Distance Mag. Time & Date
Minimum magnitude displayed is 2.5.

Coastal Water Temperatures

Place Temperature

Nearby Weather Stations